Time;durP1;ratioP1;P1;durP2;ratioP2;P2;SDS_P1;SDS_P2;PMS_P1;PMS_P2;Temp;Humidity;BMP_temperature;BMP_pressure;BME280_temperature;BME280_humidity;BME280_pressure;Samples;Min_cycle;Max_cycle;Signal;HPM_P1;HPM_P2
2021/10/19 00:01:22;;;;;;;1.13;1.02;;;;;;;24.36;26.98;95052.03;4992404;28;20034;-83
2021/10/19 00:03:47;;;;;;;1.20;1.10;;;;;;;24.32;27.05;95040.34;4995585;28;20042;-83
2021/10/19 00:06:13;;;;;;;1.10;1.00;;;;;;;24.29;27.19;95035.56;4979460;28;20034;-84
2021/10/19 00:08:41;;;;;;;1.15;1.05;;;;;;;24.37;27.51;95037.69;4975594;28;20042;-83
2021/10/19 00:11:09;;;;;;;1.02;0.93;;;;;;;24.36;27.07;95039.53;4993643;28;20026;-84
2021/10/19 00:13:36;;;;;;;1.13;0.73;;;;;;;24.40;27.04;95058.41;4975695;28;20030;-84
2021/10/19 00:16:03;;;;;;;1.10;1.00;;;;;;;24.44;27.31;95058.66;4994291;28;20088;-84
2021/10/19 00:18:29;;;;;;;1.00;0.90;;;;;;;24.43;27.18;95051.72;4973524;28;20043;-84
2021/10/19 00:20:54;;;;;;;1.17;1.08;;;;;;;24.45;27.16;95054.94;4953787;28;20101;-83
2021/10/19 00:23:22;;;;;;;0.73;0.70;;;;;;;24.46;27.22;95053.88;4950391;28;20046;-83
2021/10/19 00:25:47;;;;;;;0.80;0.80;;;;;;;24.46;26.99;95046.69;4958808;28;20042;-84
2021/10/19 00:28:13;;;;;;;0.90;0.90;;;;;;;24.47;27.08;95056.25;4972128;28;20042;-84
2021/10/19 00:30:38;;;;;;;1.25;1.00;;;;;;;24.47;27.06;95047.50;4941714;28;20022;-84
2021/10/19 00:33:06;;;;;;;0.90;0.80;;;;;;;24.47;26.92;95053.59;4954247;28;20058;-83
2021/10/19 00:35:31;;;;;;;1.13;1.00;;;;;;;24.47;26.81;95048.28;4954031;28;20047;-84
2021/10/19 00:37:57;;;;;;;1.23;0.73;;;;;;;24.45;27.12;95039.00;4950924;28;20130;-85
2021/10/19 00:40:22;;;;;;;1.10;0.90;;;;;;;24.47;26.90;95037.66;4941635;28;20034;-84
2021/10/19 00:42:47;;;;;;;0.90;0.80;;;;;;;24.48;26.78;95036.56;4971066;28;20038;-85
2021/10/19 00:45:13;;;;;;;0.90;0.90;;;;;;;24.48;26.84;95041.88;4940221;28;20034;-85
2021/10/19 00:47:56;;;;;;;0.85;0.82;;;;;;;24.47;27.07;95042.97;4961288;28;20121;-84
2021/10/19 00:50:22;;;;;;;1.10;1.00;;;;;;;24.50;26.92;95053.06;4990254;28;20049;-84
2021/10/19 00:52:48;;;;;;;0.90;0.90;;;;;;;24.50;26.90;95050.41;4992137;28;20045;-85
2021/10/19 00:55:18;;;;;;;0.80;0.80;;;;;;;24.56;26.88;95038.72;4975803;28;20025;-84
2021/10/19 00:57:45;;;;;;;;;;;;;;;24.70;27.27;95030.19;5007895;28;20030;-84
2021/10/19 01:00:11;;;;;;;1.00;0.90;;;;;;;24.56;26.91;95029.94;5010105;28;19986;-84
2021/10/19 01:02:38;;;;;;;0.85;0.85;;;;;;;24.54;26.82;95032.88;5010981;28;20029;-84
2021/10/19 01:05:04;;;;;;;0.73;0.73;;;;;;;24.52;26.85;95031.53;4992572;28;20056;-85
2021/10/19 01:07:29;;;;;;;0.80;0.80;;;;;;;24.51;26.71;95016.66;5002071;28;20026;-84
2021/10/19 01:09:55;;;;;;;0.80;0.80;;;;;;;24.50;26.71;95013.19;5007619;28;20112;-84
2021/10/19 01:12:20;;;;;;;1.00;0.88;;;;;;;24.52;27.03;95013.75;4993030;28;20057;-84
2021/10/19 01:14:48;;;;;;;1.15;1.05;;;;;;;24.50;27.15;95012.38;4993169;28;20038;-84
2021/10/19 01:17:17;;;;;;;0.80;0.80;;;;;;;24.49;27.04;95016.13;4993162;28;20033;-84
2021/10/19 01:19:47;;;;;;;0.90;0.90;;;;;;;24.57;27.09;95010.28;5010049;28;20034;-84
2021/10/19 01:22:12;;;;;;;0.88;0.88;;;;;;;24.53;26.81;95015.31;4992648;28;20057;-83
2021/10/19 01:24:38;;;;;;;1.23;1.08;;;;;;;24.52;26.82;95011.09;4992851;28;20041;-84
2021/10/19 01:27:03;;;;;;;1.00;0.80;;;;;;;24.52;26.73;95003.13;5007602;28;20038;-84
2021/10/19 01:29:29;;;;;;;1.10;0.90;;;;;;;24.51;26.85;95006.00;4993642;28;20021;-84
2021/10/19 01:31:57;;;;;;;1.05;0.80;;;;;;;24.52;26.98;95010.28;4975978;28;20072;-84
2021/10/19 01:34:22;;;;;;;0.80;0.80;;;;;;;24.53;26.89;95020.66;4994142;28;20128;-83
2021/10/19 01:36:48;;;;;;;1.00;0.90;;;;;;;24.53;26.87;95018.00;5009884;28;20061;-84
2021/10/19 01:39:16;;;;;;;1.02;0.95;;;;;;;24.53;26.99;95025.97;4990211;28;20029;-85
2021/10/19 01:41:42;;;;;;;0.88;0.82;;;;;;;24.54;27.02;95016.94;4991570;28;20025;-83
2021/10/19 01:44:10;;;;;;;1.05;0.95;;;;;;;24.59;27.04;95008.13;5007548;28;20109;-84
2021/10/19 01:46:36;;;;;;;0.85;0.80;;;;;;;24.56;27.23;95013.97;4992646;28;20034;-83
2021/10/19 01:49:01;;;;;;;1.10;0.77;;;;;;;24.56;26.78;95013.97;5009725;28;20038;-84
2021/10/19 01:51:27;;;;;;;0.80;0.80;;;;;;;24.56;26.80;95020.13;4975098;28;20037;-84
2021/10/19 01:53:54;;;;;;;1.02;0.90;;;;;;;24.53;27.20;95025.97;5006567;28;20044;-84
2021/10/19 01:56:20;;;;;;;0.70;0.70;;;;;;;24.56;27.03;95032.59;4999059;28;20032;-84
2021/10/19 01:58:45;;;;;;;1.00;0.90;;;;;;;24.55;26.83;95026.50;4971609;28;20065;-84
2021/10/19 02:01:11;;;;;;;0.85;0.80;;;;;;;24.55;26.96;95013.19;4992897;28;20123;-84
2021/10/19 02:03:36;;;;;;;0.95;0.80;;;;;;;24.58;26.98;95025.97;4990467;28;20031;-84
2021/10/19 02:06:02;;;;;;;0.93;0.82;;;;;;;24.58;26.80;95022.50;5006058;28;20123;-84
2021/10/19 02:08:30;;;;;;;1.05;0.98;;;;;;;24.57;26.69;95004.94;4974455;28;20042;-84
2021/10/19 02:10:59;;;;;;;0.70;0.70;;;;;;;24.58;26.70;95012.66;4973220;28;20077;-85
2021/10/19 02:13:24;;;;;;;0.80;0.80;;;;;;;24.57;26.76;95008.41;4989405;28;20034;-84
2021/10/19 02:15:50;;;;;;;0.70;0.70;;;;;;;24.58;26.79;94996.72;4996876;28;20029;-85
2021/10/19 02:18:15;;;;;;;0.98;0.90;;;;;;;24.58;26.56;94995.91;5008922;28;20034;-85
2021/10/19 02:20:43;;;;;;;0.60;0.60;;;;;;;24.61;26.93;94997.22;4990928;28;20092;-83
2021/10/19 02:23:08;;;;;;;0.80;0.80;;;;;;;24.56;26.40;94982.91;4991915;28;20030;-83
2021/10/19 02:25:34;;;;;;;1.33;0.90;;;;;;;24.61;26.68;94989.25;4975338;28;20041;-83
2021/10/19 02:28:02;;;;;;;0.82;0.82;;;;;;;24.61;26.81;94981.28;4990408;28;20022;-84
2021/10/19 02:30:27;;;;;;;0.65;0.65;;;;;;;24.58;26.50;94986.06;4975700;28;20034;-84
2021/10/19 02:32:53;;;;;;;0.90;0.90;;;;;;;24.59;26.87;94984.19;4993609;28;20038;-85
2021/10/19 02:35:20;;;;;;;0.68;0.68;;;;;;;24.58;26.68;94988.72;4992394;28;20030;-84
2021/10/19 02:37:46;;;;;;;0.77;0.77;;;;;;;24.57;26.80;94984.47;4975901;28;20029;-85
2021/10/19 02:40:15;;;;;;;0.88;0.73;;;;;;;24.60;26.80;94991.13;5004155;28;20029;-84
2021/10/19 02:42:40;;;;;;;0.80;0.80;;;;;;;24.60;26.57;94983.16;4973614;28;20018;-83
2021/10/19 02:45:06;;;;;;;0.70;0.70;;;;;;;24.62;26.59;94974.88;5001356;28;20091;-85
2021/10/19 02:47:31;;;;;;;0.60;0.60;;;;;;;24.63;26.45;94971.16;5007508;28;20034;-86
2021/10/19 02:49:57;;;;;;;0.80;0.80;;;;;;;24.61;26.78;94966.09;4976215;28;20033;-85
2021/10/19 02:52:24;;;;;;;0.88;0.88;;;;;;;24.48;26.92;94940.88;4991557;28;20052;-84
2021/10/19 02:54:51;;;;;;;0.85;0.80;;;;;;;24.61;26.88;94950.16;4989912;28;20034;-84
2021/10/19 02:57:17;;;;;;;1.05;0.80;;;;;;;24.63;26.75;94952.56;4973837;28;20026;-85
2021/10/19 02:59:45;;;;;;;0.82;0.82;;;;;;;24.64;26.28;94967.44;4983530;28;20029;-83
2021/10/19 03:02:10;;;;;;;1.02;0.93;;;;;;;24.62;26.61;94967.72;4992950;28;20025;-85
2021/10/19 03:04:38;;;;;;;0.80;0.80;;;;;;;24.62;26.66;94954.41;4991381;28;20093;-84
2021/10/19 03:07:03;;;;;;;0.70;0.70;;;;;;;24.63;26.62;94952.56;4974105;28;20034;-86
2021/10/19 03:09:29;;;;;;;0.60;0.60;;;;;;;24.62;26.54;94956.25;5004895;28;20041;-84
2021/10/19 03:11:54;;;;;;;0.80;0.80;;;;;;;24.66;26.47;94954.69;4975586;28;20030;-84
2021/10/19 03:14:20;;;;;;;0.85;0.75;;;;;;;24.64;26.71;94960.25;4991825;28;20038;-85
2021/10/19 03:16:45;;;;;;;0.80;0.80;;;;;;;24.66;26.53;94974.06;5008881;28;20036;-84
2021/10/19 03:19:13;;;;;;;0.70;0.70;;;;;;;24.66;26.38;94982.06;4992918;28;20042;-84
2021/10/19 03:21:39;;;;;;;0.88;0.80;;;;;;;24.64;26.44;94991.38;4969476;28;20037;-84
2021/10/19 03:24:04;;;;;;;0.75;0.63;;;;;;;24.65;26.44;94995.63;4988960;28;20037;-84
2021/10/19 03:26:30;;;;;;;0.65;0.65;;;;;;;24.64;26.45;94986.06;4981488;28;20030;-85
2021/10/19 03:28:55;;;;;;;1.00;0.90;;;;;;;24.63;26.38;94981.81;5007322;28;20045;-85
2021/10/19 03:31:21;;;;;;;0.80;0.80;;;;;;;24.67;26.62;94983.63;4992425;28;20034;-83
2021/10/19 03:33:46;;;;;;;0.75;0.75;;;;;;;24.67;26.48;94985.50;4981258;28;20057;-85
2021/10/19 03:36:14;;;;;;;0.80;0.80;;;;;;;24.68;26.45;94992.44;4990320;28;20100;-84
2021/10/19 03:38:39;;;;;;;0.75;0.75;;;;;;;24.65;26.52;94979.66;5005994;28;20030;-84
2021/10/19 03:41:05;;;;;;;0.90;0.90;;;;;;;24.65;26.63;94977.78;4991044;28;20037;-84
2021/10/19 03:43:31;;;;;;;0.95;0.82;;;;;;;24.65;26.45;94975.13;4989431;28;20048;-83
2021/10/19 03:45:58;;;;;;;0.90;0.90;;;;;;;24.59;26.81;94970.91;5008062;28;20065;-86
2021/10/19 03:48:26;;;;;;;0.70;0.70;;;;;;;24.60;26.67;94964.53;4997736;28;20045;-85
2021/10/19 03:50:51;;;;;;;0.85;0.85;;;;;;;24.58;26.60;94961.34;4994456;28;20037;-84
2021/10/19 03:53:17;;;;;;;1.30;0.80;;;;;;;24.58;26.78;94959.47;4994737;28;20045;-83
2021/10/19 03:55:43;;;;;;;1.02;0.90;;;;;;;24.63;26.85;94973.81;5010785;28;20053;-85
2021/10/19 03:58:10;;;;;;;0.85;0.85;;;;;;;24.64;26.53;94980.75;4977188;28;20022;-85
2021/10/19 04:00:35;;;;;;;0.80;0.80;;;;;;;24.68;26.61;94982.56;4983160;28;20037;-85
2021/10/19 04:03:03;;;;;;;0.90;0.80;;;;;;;24.70;26.80;94987.63;4995420;28;20042;-85
2021/10/19 04:05:28;;;;;;;0.77;0.77;;;;;;;24.52;26.61;94962.41;5010608;28;20095;-83
2021/10/19 04:07:54;;;;;;;0.95;0.88;;;;;;;24.59;26.68;94981.53;4994343;28;20038;-84
2021/10/19 04:10:21;;;;;;;0.70;0.70;;;;;;;24.53;26.50;94964.81;4977610;28;20041;-85
2021/10/19 04:12:49;;;;;;;0.70;0.70;;;;;;;24.69;26.56;95000.09;4977795;28;20061;-83
2021/10/19 04:15:14;;;;;;;1.00;0.82;;;;;;;24.64;26.55;94992.16;5012045;28;20112;-84
2021/10/19 04:17:40;;;;;;;0.90;0.80;;;;;;;24.67;26.67;94991.59;4978005;28;20038;-84
2021/10/19 04:20:06;;;;;;;0.70;0.70;;;;;;;24.64;26.91;94978.88;5009839;28;20022;-83
2021/10/19 04:22:33;;;;;;;0.80;0.77;;;;;;;24.65;26.37;94984.97;4992862;28;20100;-84
2021/10/19 04:24:59;;;;;;;0.77;0.75;;;;;;;24.58;26.37;94988.72;4992944;28;20042;-85
2021/10/19 04:27:27;;;;;;;2.28;0.80;;;;;;;24.74;26.51;95013.41;4947705;28;20038;-85
2021/10/19 04:29:55;;;;;;;1.40;0.90;;;;;;;24.69;26.59;95013.41;4954626;28;20057;-86
2021/10/19 04:32:20;;;;;;;0.82;0.80;;;;;;;24.71;26.36;95008.63;4941920;28;20038;-84
2021/10/19 04:34:51;;;;;;;0.80;0.80;;;;;;;24.77;26.63;95017.41;4957264;28;20038;-85
2021/10/19 04:37:17;;;;;;;0.80;0.80;;;;;;;24.62;26.73;94998.81;4971315;28;20050;-84
2021/10/19 04:39:42;;;;;;;1.30;0.82;;;;;;;24.71;26.57;95021.13;4971387;28;20037;-83
2021/10/19 04:42:10;;;;;;;0.70;0.70;;;;;;;24.77;26.77;95025.38;4972987;28;20053;-84
2021/10/19 04:44:36;;;;;;;1.05;0.95;;;;;;;24.67;26.53;95012.09;4973249;28;20034;-84
2021/10/19 04:47:04;;;;;;;0.80;0.73;;;;;;;24.79;26.81;95020.56;4958550;28;20113;-85
2021/10/19 04:49:29;;;;;;;0.80;0.80;;;;;;;24.69;26.72;95012.63;4937949;28;20042;-83
2021/10/19 04:51:58;;;;;;;0.70;0.70;;;;;;;24.73;26.56;95033.09;4954232;28;20030;-83
2021/10/19 04:54:23;;;;;;;1.17;0.93;;;;;;;24.65;26.63;95017.69;4957464;28;20034;-85
2021/10/19 04:56:49;;;;;;;0.80;0.80;;;;;;;24.69;26.63;95007.28;4973411;28;20042;-86
2021/10/19 04:59:14;;;;;;;0.68;0.68;;;;;;;24.58;26.76;94986.06;4984770;28;20041;-84
2021/10/19 05:01:40;;;;;;;0.70;0.70;;;;;;;24.66;26.65;95013.97;4977270;28;20081;-85
2021/10/19 05:04:06;;;;;;;0.80;0.80;;;;;;;24.76;26.59;95023.78;4977549;28;20045;-84
2021/10/19 05:06:32;;;;;;;0.75;0.75;;;;;;;24.68;26.80;95013.69;5007932;28;20029;-84
2021/10/19 05:09:00;;;;;;;0.90;0.90;;;;;;;24.66;26.59;95002.53;5008804;28;20133;-84
2021/10/19 05:11:27;;;;;;;1.08;0.80;;;;;;;24.83;26.71;95034.09;4976588;28;20018;-84
2021/10/19 05:13:53;;;;;;;0.80;0.80;;;;;;;24.76;26.57;95037.84;4993729;28;20077;-83
2021/10/19 05:16:18;;;;;;;0.82;0.80;;;;;;;24.73;26.62;95033.09;4994254;28;20046;-85
2021/10/19 05:18:44;;;;;;;0.85;0.82;;;;;;;24.78;26.58;95040.25;4994633;28;20030;-85
2021/10/19 05:21:09;;;;;;;1.05;0.90;;;;;;;24.77;26.52;95034.13;4974210;28;20033;-83
2021/10/19 05:23:34;;;;;;;0.70;0.70;;;;;;;24.74;26.65;95020.59;5008881;28;20034;-82
2021/10/19 05:26:00;;;;;;;1.52;0.80;;;;;;;24.73;26.58;95021.63;5007526;28;20092;-84
2021/10/19 05:28:26;;;;;;;0.90;0.80;;;;;;;24.68;26.45;95005.72;4989610;28;20033;-84
2021/10/19 05:30:51;;;;;;;0.68;0.60;;;;;;;24.78;26.62;95021.63;4978455;28;20030;-85
2021/10/19 05:33:16;;;;;;;0.80;0.77;;;;;;;24.73;26.63;95019.81;4977192;28;20103;-84
2021/10/19 05:35:42;;;;;;;0.88;0.88;;;;;;;24.79;26.49;95023.25;4976178;28;20049;-84
2021/10/19 05:38:07;;;;;;;0.68;0.68;;;;;;;24.65;26.47;95004.38;4998487;28;20037;-84
2021/10/19 05:40:33;;;;;;;0.80;0.80;;;;;;;24.71;26.71;95013.13;4975796;28;20041;-83
2021/10/19 05:42:58;;;;;;;0.85;0.80;;;;;;;24.74;26.67;95031.22;4991587;28;20037;-85
2021/10/19 05:45:24;;;;;;;0.90;0.80;;;;;;;24.78;26.64;95035.72;4976203;28;20029;-84
2021/10/19 05:47:49;;;;;;;0.73;0.73;;;;;;;24.71;26.75;95021.94;4992755;28;20034;-85
2021/10/19 05:50:16;;;;;;;0.80;0.80;;;;;;;24.81;26.59;95044.22;5008127;28;20041;-84
2021/10/19 05:52:41;;;;;;;0.90;0.80;;;;;;;24.80;26.35;95045.31;4992004;28;20024;-83
2021/10/19 05:55:08;;;;;;;0.85;0.80;;;;;;;24.75;26.53;95043.44;5005706;28;20030;-85
2021/10/19 05:57:33;;;;;;;0.75;0.70;;;;;;;24.78;26.60;95042.91;4992168;28;20038;-83
2021/10/19 05:59:59;;;;;;;1.10;0.90;;;;;;;24.79;26.62;95044.50;4992188;28;20034;-84
2021/10/19 06:02:24;;;;;;;0.90;0.70;;;;;;;24.75;26.66;95038.13;4992919;28;20033;-84
2021/10/19 06:04:50;;;;;;;0.90;0.77;;;;;;;24.80;26.54;95042.66;4982103;28;20033;-85
2021/10/19 06:07:15;;;;;;;0.70;0.70;;;;;;;24.64;26.55;95026.75;4990051;28;20160;-83
2021/10/19 06:09:41;;;;;;;0.88;0.70;;;;;;;24.80;26.48;95053.28;4990613;28;20030;-84
2021/10/19 06:12:08;;;;;;;0.90;0.90;;;;;;;24.81;26.69;95058.34;4991024;28;20076;-85
2021/10/19 06:14:39;;;;;;;0.98;0.90;;;;;;;24.82;26.64;95056.47;4975770;28;20037;-84
2021/10/19 06:17:04;;;;;;;1.00;0.90;;;;;;;24.78;26.71;95053.56;4977537;28;20045;-85
2021/10/19 06:19:30;;;;;;;1.30;0.80;;;;;;;24.81;26.58;95058.34;5017732;28;20064;-84
2021/10/19 06:22:02;;;;;;;0.77;0.77;;;;;;;24.86;26.65;95052.19;4990489;28;20038;-84
2021/10/19 06:24:28;;;;;;;1.42;0.95;;;;;;;24.80;26.69;95056.72;4991016;28;20148;-83
2021/10/19 06:26:53;;;;;;;0.80;0.80;;;;;;;24.69;26.79;95040.00;5007980;28;20042;-84
2021/10/19 06:29:19;;;;;;;1.25;0.70;;;;;;;24.74;26.79;95039.19;4973161;28;20030;-83
2021/10/19 06:31:44;;;;;;;0.95;0.90;;;;;;;24.81;26.86;95047.69;4993440;28;20030;-85
2021/10/19 06:34:14;;;;;;;0.77;0.77;;;;;;;24.79;26.65;95049.84;4991715;28;20029;-84
2021/10/19 06:36:40;;;;;;;0.98;0.90;;;;;;;24.83;26.62;95064.19;4991328;28;20076;-85
2021/10/19 06:39:05;;;;;;;0.80;0.80;;;;;;;24.83;26.64;95058.88;4992508;28;20033;-84
2021/10/19 06:41:31;;;;;;;0.80;0.80;;;;;;;24.74;26.71;95047.97;4991151;28;20156;-85
2021/10/19 06:43:57;;;;;;;0.70;0.70;;;;;;;24.65;27.08;95025.66;4975641;28;20030;-84
2021/10/19 06:46:23;;;;;;;1.10;0.90;;;;;;;24.82;26.91;95054.59;4977229;28;20164;-85
2021/10/19 06:48:48;;;;;;;0.75;0.70;;;;;;;24.71;26.71;95039.72;5006556;28;20034;-83
2021/10/19 06:51:14;;;;;;;1.15;0.90;;;;;;;24.69;26.96;95034.69;4973676;28;20017;-84
2021/10/19 06:53:39;;;;;;;1.08;0.95;;;;;;;24.78;27.06;95049.03;4975532;28;20029;-83
2021/10/19 06:56:09;;;;;;;2.05;0.98;;;;;;;24.82;26.75;95057.25;5005792;23;20046;-83
2021/10/19 06:58:34;;;;;;;1.10;1.00;;;;;;;24.82;27.07;95051.94;5005815;28;20093;-83
2021/10/19 07:01:05;;;;;;;1.42;0.93;;;;;;;24.77;26.90;95046.66;4995512;28;20026;-83
2021/10/19 07:03:30;;;;;;;1.00;0.90;;;;;;;24.77;27.27;95046.66;5034670;28;20029;-83
2021/10/19 07:06:00;;;;;;;0.95;0.95;;;;;;;24.75;26.99;95046.09;5011543;28;20038;-82
2021/10/19 07:08:27;;;;;;;0.98;0.85;;;;;;;24.80;27.24;95051.41;4995876;28;20017;-83
2021/10/19 07:10:54;;;;;;;0.82;0.82;;;;;;;24.75;27.34;95046.91;5002064;28;20093;-82
2021/10/19 07:13:23;;;;;;;1.02;0.93;;;;;;;24.85;27.25;95059.38;5013362;28;20034;-83
2021/10/19 07:15:54;;;;;;;1.23;1.05;;;;;;;24.86;27.47;95065.50;5024086;28;20033;-83
2021/10/19 07:18:20;;;;;;;2.55;1.08;;;;;;;24.73;27.30;95046.41;5028063;28;20064;-82
2021/10/19 07:20:45;;;;;;;0.93;0.90;;;;;;;24.78;27.68;95053.56;5006177;28;20026;-83
2021/10/19 07:23:11;;;;;;;2.90;1.00;;;;;;;24.82;27.64;95067.91;4999316;28;20030;-83
2021/10/19 07:25:38;;;;;;;1.08;0.98;;;;;;;24.80;27.42;95064.72;4994232;28;20080;-83
2021/10/19 07:28:03;;;;;;;1.00;0.90;;;;;;;24.72;27.88;95055.44;4997785;28;20025;-83
2021/10/19 07:30:29;;;;;;;1.10;1.00;;;;;;;24.83;27.52;95082.81;4995436;28;20056;-83
2021/10/19 07:32:55;;;;;;;1.42;1.10;;;;;;;24.73;27.59;95078.31;4981067;28;20081;-83
2021/10/19 07:35:22;;;;;;;1.10;1.00;;;;;;;24.77;27.74;95083.88;4987583;28;20034;-82
2021/10/19 07:37:48;;;;;;;0.95;0.90;;;;;;;24.83;28.06;95096.09;4975625;28;20124;-83
2021/10/19 07:40:14;;;;;;;1.08;0.90;;;;;;;24.76;28.08;95079.63;4995506;28;20103;-83
2021/10/19 07:42:45;;;;;;;1.10;1.00;;;;;;;24.92;27.59;95097.16;4995577;28;20014;-83
2021/10/19 07:45:15;;;;;;;1.25;1.10;;;;;;;24.89;28.05;95092.34;4994403;28;20030;-83
2021/10/19 07:47:48;;;;;;;0.98;0.98;;;;;;;24.87;28.06;95091.03;5003685;28;20036;-83
2021/10/19 07:50:16;;;;;;;1.20;1.00;;;;;;;24.83;27.96;95090.78;5022103;28;20439;-83
2021/10/19 07:52:46;;;;;;;0.93;0.90;;;;;;;24.88;28.40;95109.38;4991761;28;20060;-83
2021/10/19 07:55:12;;;;;;;0.95;0.95;;;;;;;24.80;27.96;95093.19;4978883;28;20034;-83
2021/10/19 07:57:44;;;;;;;1.10;1.00;;;;;;;24.86;27.94;95086.78;5012005;28;20085;-82
2021/10/19 08:00:14;;;;;;;1.45;1.00;;;;;;;24.81;28.15;95081.47;5007876;28;20118;-83
2021/10/19 08:02:46;;;;;;;1.30;1.20;;;;;;;24.82;28.35;95081.19;5002129;28;20033;-83
2021/10/19 08:05:13;;;;;;;1.10;1.00;;;;;;;24.84;28.15;95084.38;5001843;28;20037;-83
2021/10/19 08:07:42;;;;;;;1.45;1.10;;;;;;;24.92;27.99;95096.31;4991914;28;20018;-83
2021/10/19 08:10:10;;;;;;;1.10;1.00;;;;;;;24.93;28.14;95092.63;4975103;28;20036;-83
2021/10/19 08:12:36;;;;;;;1.02;0.93;;;;;;;24.90;28.28;95087.81;4980827;28;20026;-83
2021/10/19 08:15:05;;;;;;;1.20;1.10;;;;;;;24.83;28.56;95076.66;4974921;28;20065;-83
2021/10/19 08:17:31;;;;;;;1.20;0.90;;;;;;;24.93;28.42;95100.59;4998307;28;20153;-82
2021/10/19 08:19:59;;;;;;;1.80;1.23;;;;;;;24.94;28.33;95100.31;4994421;28;20275;-82
2021/10/19 08:22:28;;;;;;;1.10;1.00;;;;;;;25.01;28.32;95096.56;5011259;28;20183;-84
2021/10/19 08:24:55;;;;;;;0.82;0.82;;;;;;;24.97;28.29;95099.75;4976674;28;20061;-83
2021/10/19 08:27:22;;;;;;;0.90;0.90;;;;;;;24.95;28.38;95091.25;4979642;28;20030;-83
2021/10/19 08:29:48;;;;;;;1.40;0.95;;;;;;;24.94;28.61;95080.88;4995998;28;20041;-83
2021/10/19 08:32:14;;;;;;;1.27;1.17;;;;;;;24.99;28.76;95094.19;4995423;28;20022;-83
2021/10/19 08:34:42;;;;;;;1.10;0.93;;;;;;;24.98;28.44;95090.72;5010050;28;20029;-83
2021/10/19 08:37:08;;;;;;;0.98;0.80;;;;;;;24.98;28.84;95097.94;5021909;28;20028;-82
2021/10/19 08:39:36;;;;;;;0.80;0.80;;;;;;;25.01;28.76;95096.56;4977586;28;20033;-82
2021/10/19 08:42:04;;;;;;;0.95;0.90;;;;;;;24.92;28.48;95083.84;4993966;28;20415;-83
2021/10/19 08:44:29;;;;;;;1.02;0.93;;;;;;;25.03;28.74;95102.41;4992182;28;20022;-83
2021/10/19 08:46:59;;;;;;;0.90;0.90;;;;;;;25.01;28.87;95096.56;5036833;28;20026;-83
2021/10/19 08:49:31;;;;;;;1.05;0.93;;;;;;;25.04;28.50;95094.16;5007118;28;20029;-83
2021/10/19 08:51:57;;;;;;;1.10;1.00;;;;;;;25.04;28.63;95091.50;5018242;28;20033;-83
2021/10/19 08:54:24;;;;;;;1.05;1.00;;;;;;;25.01;28.75;95083.28;5009939;28;20034;-82
2021/10/19 08:56:51;;;;;;;1.20;1.08;;;;;;;25.05;28.41;95092.28;5006378;28;20066;-83
2021/10/19 08:59:24;;;;;;;0.88;0.88;;;;;;;25.05;28.27;95079.00;5008395;28;20034;-83
2021/10/19 09:01:50;;;;;;;1.08;0.98;;;;;;;25.02;28.38;95095.50;4994844;28;20037;-83
2021/10/19 09:04:20;;;;;;;1.20;0.98;;;;;;;25.05;28.46;95106.41;5005663;28;20039;-83
2021/10/19 09:06:47;;;;;;;0.88;0.88;;;;;;;24.92;28.34;95083.84;4996835;28;20118;-83
2021/10/19 09:09:16;;;;;;;1.02;0.93;;;;;;;24.99;28.25;95091.53;4993535;28;20052;-83
2021/10/19 09:11:46;;;;;;;0.85;0.80;;;;;;;25.12;28.25;95100.78;5011832;28;20057;-83
2021/10/19 09:14:12;;;;;;;1.23;0.80;;;;;;;25.04;28.15;95096.03;5016052;28;20042;-83
2021/10/19 09:16:50;;;;;;;1.10;1.00;;;;;;;25.06;28.17;95091.25;5013750;28;20036;-83
2021/10/19 09:19:19;;;;;;;1.35;0.90;;;;;;;25.12;27.85;95098.13;4992743;28;20096;-83
2021/10/19 09:22:09;;;;;;;1.02;0.93;;;;;;;25.13;27.89;95097.88;4989184;28;20030;-83
2021/10/19 09:24:35;;;;;;;;;;;;;;;25.28;27.83;95105.00;5019072;28;20037;-83
2021/10/19 09:27:09;;;;;;;1.05;0.95;;;;;;;25.18;27.73;95100.50;5015590;28;19992;-83
2021/10/19 09:29:40;;;;;;;0.98;0.88;;;;;;;25.11;28.03;95104.50;4978054;28;20053;-83
2021/10/19 09:32:07;;;;;;;1.20;1.10;;;;;;;25.07;28.08;95106.13;5010340;28;20021;-83
2021/10/19 09:34:36;;;;;;;1.20;1.10;;;;;;;25.06;28.24;95108.00;5012119;28;20049;-83
2021/10/19 09:37:05;;;;;;;1.20;1.10;;;;;;;25.06;28.18;95108.00;4990187;28;20030;-83
2021/10/19 09:39:35;;;;;;;1.27;0.90;;;;;;;25.04;28.15;95107.47;5010737;28;20025;-83
2021/10/19 09:42:06;;;;;;;1.30;1.20;;;;;;;24.98;28.09;95096.06;5008610;28;20064;-83
2021/10/19 09:44:31;;;;;;;1.13;1.02;;;;;;;25.05;28.02;95110.94;4993089;28;20045;-83
2021/10/19 09:46:58;;;;;;;1.75;0.98;;;;;;;25.05;27.81;95100.28;5009418;28;20034;-83
2021/10/19 09:49:24;;;;;;;0.98;0.90;;;;;;;25.04;27.85;95106.69;4975049;28;20034;-83
2021/10/19 09:51:52;;;;;;;1.10;1.00;;;;;;;25.09;27.91;95109.31;4993360;28;20081;-83
2021/10/19 09:54:24;;;;;;;1.10;1.00;;;;;;;25.03;28.34;95092.56;5003585;28;20033;-83
2021/10/19 09:56:49;;;;;;;1.27;1.10;;;;;;;25.02;28.18;95096.31;5008271;28;20029;-83
2021/10/19 09:59:17;;;;;;;0.90;0.90;;;;;;;25.00;28.09;95097.63;5004955;28;20030;-83
2021/10/19 10:01:48;;;;;;;1.10;1.00;;;;;;;24.98;27.87;95082.75;5009797;28;20026;-83
2021/10/19 10:04:15;;;;;;;;;;;;;;;25.24;27.96;95089.84;4971322;28;20034;-83
2021/10/19 10:06:41;;;;;;;1.42;1.02;;;;;;;25.11;28.55;95097.34;5006740;28;19952;-82
2021/10/19 10:09:08;;;;;;;1.02;0.93;;;;;;;24.98;28.24;95085.41;4980895;28;20033;-83
2021/10/19 10:11:42;;;;;;;1.10;1.00;;;;;;;25.13;27.91;95094.38;5014445;28;20037;-83
2021/10/19 10:14:14;;;;;;;1.02;0.95;;;;;;;24.94;28.39;95070.25;4990900;28;20025;-83
2021/10/19 10:16:49;;;;;;;1.10;1.00;;;;;;;25.01;28.00;95069.97;4990359;28;20041;-83
2021/10/19 10:19:19;;;;;;;1.77;1.13;;;;;;;25.03;27.95;95068.63;4995167;28;20033;-83
2021/10/19 10:21:53;;;;;;;1.10;1.00;;;;;;;25.13;28.05;95086.41;5009711;28;20034;-83
2021/10/19 10:24:32;;;;;;;1.25;0.95;;;;;;;25.17;28.24;95088.25;4993011;28;20055;-83
2021/10/19 10:27:11;;;;;;;0.90;0.77;;;;;;;25.12;28.03;95068.84;4975430;28;20104;-83
2021/10/19 10:29:48;;;;;;;1.27;1.00;;;;;;;25.17;28.03;95082.94;4982948;28;20037;-83
2021/10/19 10:32:22;;;;;;;2.08;0.90;;;;;;;25.16;28.16;95086.66;4977851;28;20040;-83
2021/10/19 10:35:10;;;;;;;0.80;0.80;;;;;;;25.16;28.14;95086.66;5009366;28;20071;-83
2021/10/19 10:37:52;;;;;;;1.23;0.90;;;;;;;25.15;28.24;95082.41;5016212;28;20050;-83
2021/10/19 10:40:34;;;;;;;1.10;1.00;;;;;;;25.18;28.14;95089.84;4985103;28;20037;-83
2021/10/19 10:43:01;;;;;;;0.90;0.80;;;;;;;25.03;28.46;95070.50;5010231;28;20025;-83
2021/10/19 10:45:32;;;;;;;0.80;0.80;;;;;;;25.15;28.44;95073.63;4995875;28;20030;-82
2021/10/19 10:48:00;;;;;;;;;;;;;;;25.31;27.88;95075.19;4991684;28;20037;-83
2021/10/19 10:50:27;;;;;;;1.00;0.82;;;;;;;25.17;28.50;95066.97;5008466;28;19927;-83
2021/10/19 10:53:12;;;;;;;1.00;0.85;;;;;;;25.28;28.33;95070.38;4988956;28;20030;-82
2021/10/19 10:55:38;;;;;;;1.15;1.00;;;;;;;25.14;28.59;95056.84;4990029;28;20095;-82
2021/10/19 10:58:04;;;;;;;1.25;0.93;;;;;;;25.16;28.56;95062.69;5009868;28;20030;-83
2021/10/19 11:00:30;;;;;;;1.00;0.90;;;;;;;25.14;28.62;95064.06;4978352;28;20026;-83
2021/10/19 11:03:08;;;;;;;0.90;0.90;;;;;;;25.25;28.13;95057.66;4997908;28;20022;-83
2021/10/19 11:05:38;;;;;;;0.90;0.90;;;;;;;25.22;28.78;95055.50;5021671;28;20014;-83
2021/10/19 11:08:07;;;;;;;1.00;0.90;;;;;;;25.18;28.61;95049.91;4973632;28;20081;-83
2021/10/19 11:10:32;;;;;;;0.95;0.93;;;;;;;25.18;28.64;95049.91;4996061;28;20030;-83
2021/10/19 11:13:03;;;;;;;0.80;0.80;;;;;;;25.26;28.61;95047.78;5012410;28;20076;-83
2021/10/19 11:15:29;;;;;;;1.13;1.00;;;;;;;25.20;28.75;95039.00;5010937;28;20127;-83
2021/10/19 11:17:57;;;;;;;0.80;0.80;;;;;;;25.21;28.61;95029.16;4996782;28;20029;-83
2021/10/19 11:20:23;;;;;;;1.10;1.00;;;;;;;25.18;28.71;95019.84;4994345;28;20041;-83
2021/10/19 11:22:51;;;;;;;1.02;0.93;;;;;;;25.20;28.66;95023.03;4976804;28;20022;-83
2021/10/19 11:25:19;;;;;;;0.80;0.80;;;;;;;25.22;28.98;95023.56;4992915;28;20026;-83
2021/10/19 11:27:50;;;;;;;0.80;0.80;;;;;;;25.22;28.59;95014.78;5013304;28;20108;-83
2021/10/19 11:30:15;;;;;;;0.82;0.82;;;;;;;25.22;28.75;95012.91;4991105;28;20028;-83
2021/10/19 11:32:43;;;;;;;1.25;1.00;;;;;;;25.21;28.82;95016.66;4996528;28;20029;-83
2021/10/19 11:35:13;;;;;;;1.00;0.80;;;;;;;25.30;28.50;95016.88;5031652;28;20075;-83